Time;durP1;ratioP1;P1;durP2;ratioP2;P2;SDS_P1;SDS_P2;PMS_P1;PMS_P2;Temp;Humidity;BMP_temperature;BMP_pressure;BME280_temperature;BME280_humidity;BME280_pressure;Samples;Min_cycle;Max_cycle;Signal;HPM_P1;HPM_P2
2023/12/25 00:01:07;;;;;;;14.75;4.20;;;11.10;99.90;;;;;;5093407;28;20368;-72
2023/12/25 00:03:34;;;;;;;17.05;3.80;;;11.10;99.90;;;;;;5093275;28;20449;-73
2023/12/25 00:06:01;;;;;;;9.82;3.10;;;11.10;99.90;;;;;;5073676;28;20048;-73
2023/12/25 00:08:28;;;;;;;12.00;3.15;;;11.10;99.90;;;;;;5096632;28;20055;-73
2023/12/25 00:10:55;;;;;;;16.33;3.35;;;11.20;99.90;;;;;;5095806;28;20048;-72
2023/12/25 00:13:23;;;;;;;9.40;2.80;;;11.20;99.90;;;;;;5078384;28;20491;-72
2023/12/25 00:15:50;;;;;;;13.45;2.95;;;11.20;99.90;;;;;;5082293;28;20088;-73
2023/12/25 00:18:17;;;;;;;14.55;3.53;;;11.10;99.90;;;;;;5097577;28;20056;-71
2023/12/25 00:20:44;;;;;;;15.20;3.47;;;11.10;99.90;;;;;;5097259;28;20044;-73
2023/12/25 00:23:11;;;;;;;13.82;3.47;;;11.30;99.90;;;;;;5096872;28;20491;-73
2023/12/25 00:25:38;;;;;;;12.82;3.28;;;11.10;99.90;;;;;;5097251;28;20043;-73
2023/12/25 00:28:06;;;;;;;16.15;3.35;;;11.10;99.90;;;;;;5097433;28;20548;-72
2023/12/25 00:30:34;;;;;;;16.05;3.55;;;11.10;99.90;;;;;;5096585;28;20096;-72
2023/12/25 00:33:01;;;;;;;13.75;3.15;;;11.10;99.90;;;;;;5096733;28;20553;-72
2023/12/25 00:35:28;;;;;;;13.15;3.35;;;11.20;99.90;;;;;;5097064;28;20568;-73
2023/12/25 00:37:55;;;;;;;10.60;2.97;;;11.20;99.90;;;;;;5096102;28;20491;-72
2023/12/25 00:40:22;;;;;;;6.72;2.78;;;11.10;99.90;;;;;;5097294;28;20120;-72
2023/12/25 00:42:49;;;;;;;13.73;3.85;;;11.10;99.90;;;;;;5097100;28;20085;-72
2023/12/25 00:45:16;;;;;;;14.63;3.38;;;11.10;99.90;;;;;;5096416;28;20092;-72
2023/12/25 00:47:44;;;;;;;13.10;2.75;;;11.20;99.90;;;;;;5096915;28;20058;-73
2023/12/25 00:50:11;;;;;;;10.05;2.83;;;11.20;99.90;;;;;;5097016;28;20048;-72
2023/12/25 00:52:38;;;;;;;7.90;3.08;;;11.20;99.90;;;;;;5075332;28;20097;-72
2023/12/25 00:55:05;;;;;;;9.35;2.55;;;11.10;99.90;;;;;;5077609;28;20056;-73
2023/12/25 00:57:32;;;;;;;13.45;2.72;;;11.20;99.90;;;;;;5076398;28;20087;-73
2023/12/25 00:59:59;;;;;;;10.60;2.42;;;11.20;99.90;;;;;;5076626;28;20040;-73
2023/12/25 01:02:26;;;;;;;10.77;2.40;;;11.10;99.90;;;;;;5077689;28;20385;-72
2023/12/25 01:04:55;;;;;;;7.72;2.20;;;11.00;99.90;;;;;;5075177;28;20450;-72
2023/12/25 01:07:22;;;;;;;13.70;2.95;;;11.00;99.90;;;;;;5077553;28;20118;-72
2023/12/25 01:09:48;;;;;;;9.57;2.58;;;11.00;99.90;;;;;;5077377;28;20444;-73
2023/12/25 01:12:15;;;;;;;11.13;2.08;;;10.90;99.90;;;;;;5076844;28;20051;-73
2023/12/25 01:14:44;;;;;;;9.80;3.35;;;10.90;99.90;;;;;;5077124;28;20056;-73
2023/12/25 01:17:11;;;;;;;8.52;2.33;;;10.90;99.90;;;;;;5077097;28;20499;-73
2023/12/25 01:19:37;;;;;;;9.20;2.30;;;10.90;99.90;;;;;;5072591;28;20412;-72
2023/12/25 01:22:06;;;;;;;8.20;2.13;;;10.90;99.90;;;;;;5077338;28;20113;-72
2023/12/25 01:24:33;;;;;;;10.43;2.67;;;10.80;99.90;;;;;;5077137;28;20051;-72
2023/12/25 01:27:00;;;;;;;11.32;3.05;;;10.80;99.90;;;;;;5076597;28;20051;-72
2023/12/25 01:29:26;;;;;;;6.93;1.95;;;10.80;99.90;;;;;;5077112;28;20097;-72
2023/12/25 01:31:53;;;;;;;9.18;2.10;;;10.70;99.90;;;;;;5074862;28;20048;-73
2023/12/25 01:34:20;;;;;;;15.73;3.05;;;10.70;99.90;;;;;;5076280;28;20086;-73
2023/12/25 01:36:47;;;;;;;9.50;2.70;;;10.70;99.90;;;;;;5076931;28;20051;-73
2023/12/25 01:39:15;;;;;;;9.65;3.00;;;10.60;99.90;;;;;;5076758;28;20056;-72
2023/12/25 01:41:41;;;;;;;8.57;2.10;;;10.60;99.90;;;;;;5079920;28;20081;-73
2023/12/25 01:44:08;;;;;;;12.80;2.45;;;10.70;99.90;;;;;;5095441;28;20043;-73
2023/12/25 01:46:35;;;;;;;10.93;3.13;;;10.60;99.90;;;;;;5095059;28;20063;-72
2023/12/25 01:49:02;;;;;;;8.07;2.05;;;10.60;99.90;;;;;;5094970;28;20039;-72
2023/12/25 01:51:29;;;;;;;12.63;2.33;;;10.50;99.90;;;;;;5095501;28;20488;-72
2023/12/25 01:53:56;;;;;;;13.35;2.30;;;10.50;99.90;;;;;;5095299;28;20040;-72
2023/12/25 01:56:24;;;;;;;12.63;3.00;;;10.50;99.90;;;;;;5094600;28;20499;-72
2023/12/25 01:58:51;;;;;;;14.60;2.67;;;10.50;99.90;;;;;;5095043;28;20569;-72
2023/12/25 02:01:19;;;;;;;12.55;3.15;;;10.70;99.90;;;;;;5094621;28;20039;-72
2023/12/25 02:03:47;;;;;;;6.60;2.47;;;10.50;99.90;;;;;;5095111;28;20135;-72
2023/12/25 02:06:15;;;;;;;11.65;3.05;;;10.50;99.90;;;;;;5095146;28;20056;-71
2023/12/25 02:08:42;;;;;;;11.10;2.70;;;10.40;99.90;;;;;;5094656;28;20051;-72
2023/12/25 02:11:09;;;;;;;8.48;2.65;;;10.30;99.90;;;;;;5095218;28;20437;-73
2023/12/25 02:13:37;;;;;;;14.65;3.17;;;10.30;99.90;;;;;;5095168;28;20044;-73
2023/12/25 02:16:05;;;;;;;8.55;3.03;;;10.30;99.90;;;;;;5094635;28;20051;-73
2023/12/25 02:18:32;;;;;;;8.00;2.33;;;10.20;99.90;;;;;;5095183;28;20056;-72
2023/12/25 02:20:59;;;;;;;15.52;2.60;;;10.20;99.90;;;;;;5094883;28;20039;-74
2023/12/25 02:23:29;;;;;;;9.82;3.00;;;10.30;99.90;;;;;;5094339;28;20047;-74
2023/12/25 02:25:59;;;;;;;12.20;2.30;;;10.20;99.90;;;;;;5095121;28;20121;-74
2023/12/25 02:28:26;;;;;;;13.30;2.60;;;10.30;99.90;;;;;;5094523;28;20055;-74
2023/12/25 02:30:53;;;;;;;6.72;2.30;;;10.20;99.90;;;;;;5071370;28;20106;-73
2023/12/25 02:33:20;;;;;;;13.60;2.78;;;10.30;99.90;;;;;;5075670;28;20048;-74
2023/12/25 02:35:46;;;;;;;9.27;2.90;;;10.20;99.90;;;;;;5074209;28;20048;-73
2023/12/25 02:38:13;;;;;;;14.25;3.22;;;10.20;99.90;;;;;;5093140;28;20048;-73
2023/12/25 02:40:40;;;;;;;13.23;3.45;;;10.20;99.90;;;;;;5075427;28;20048;-72
2023/12/25 02:43:10;;;;;;;15.95;3.20;;;10.20;99.90;;;;;;5073217;28;20543;-73
2023/12/25 02:45:37;;;;;;;12.50;3.17;;;10.20;99.90;;;;;;5074484;28;20055;-73
2023/12/25 02:48:05;;;;;;;11.13;2.70;;;10.20;99.90;;;;;;5075392;28;20050;-73
2023/12/25 02:50:31;;;;;;;12.73;3.10;;;10.30;99.90;;;;;;5094265;28;20104;-73
2023/12/25 02:52:58;;;;;;;16.60;3.00;;;10.30;99.90;;;;;;5094446;28;20081;-72
2023/12/25 02:55:26;;;;;;;14.43;3.63;;;10.30;99.90;;;;;;5094358;28;20108;-73
2023/12/25 02:57:53;;;;;;;13.43;3.60;;;10.30;99.90;;;;;;5093856;28;20090;-73
2023/12/25 03:00:21;;;;;;;12.10;3.00;;;10.30;99.90;;;;;;5094172;28;20487;-72
2023/12/25 03:02:48;;;;;;;12.52;3.25;;;10.30;99.90;;;;;;5074979;28;20097;-72
2023/12/25 03:05:15;;;;;;;12.60;3.05;;;10.30;99.90;;;;;;5074406;28;20109;-72
2023/12/25 03:07:42;;;;;;;14.48;3.47;;;10.20;99.90;;;;;;5074173;28;20477;-72
2023/12/25 03:10:09;;;;;;;13.55;3.97;;;10.20;99.90;;;;;;5090826;28;20044;-73
2023/12/25 03:12:36;;;;;;;14.77;3.15;;;10.30;99.90;;;;;;5074184;28;20105;-74
2023/12/25 03:15:03;;;;;;;11.35;2.85;;;10.30;99.90;;;;;;5075036;28;20124;-73
2023/12/25 03:17:31;;;;;;;15.50;3.58;;;10.30;99.90;;;;;;5094002;28;20083;-71
2023/12/25 03:19:58;;;;;;;12.57;2.63;;;10.30;99.90;;;;;;5093425;28;20045;-73
2023/12/25 03:22:24;;;;;;;14.77;3.90;;;10.30;99.90;;;;;;5094303;28;20089;-73
2023/12/25 03:24:51;;;;;;;14.27;2.70;;;10.30;99.90;;;;;;5093539;28;20100;-73
2023/12/25 03:27:18;;;;;;;11.02;2.60;;;10.40;99.90;;;;;;5093277;28;20093;-73
2023/12/25 03:29:45;;;;;;;15.05;3.45;;;10.40;99.90;;;;;;5094035;28;20126;-73
2023/12/25 03:32:13;;;;;;;17.02;3.58;;;10.40;99.90;;;;;;5093874;28;20047;-73
2023/12/25 03:34:50;;;;;;;17.13;3.30;;;10.40;99.90;;;;;;5093290;28;20044;-72
2023/12/25 03:37:17;;;;;;;11.73;2.53;;;10.30;99.90;;;;;;5093527;28;20055;-73
2023/12/25 03:39:44;;;;;;;13.25;3.22;;;10.40;99.90;;;;;;5094484;28;20048;-73
2023/12/25 03:42:11;;;;;;;15.25;3.47;;;10.30;99.90;;;;;;5097684;28;20081;-73
2023/12/25 03:44:38;;;;;;;13.07;2.50;;;10.20;99.90;;;;;;5098117;28;20050;-73
2023/12/25 03:47:05;;;;;;;11.70;3.15;;;10.20;99.90;;;;;;5088548;28;20445;-73
2023/12/25 03:49:32;;;;;;;16.88;3.00;;;10.20;99.90;;;;;;5097785;28;20048;-73
2023/12/25 03:52:00;;;;;;;12.80;2.22;;;10.10;99.90;;;;;;5097790;28;20495;-72
2023/12/25 03:54:27;;;;;;;10.25;2.85;;;10.10;99.90;;;;;;5097301;28;20059;-73
2023/12/25 03:56:54;;;;;;;11.18;2.65;;;10.10;99.90;;;;;;5097845;28;20459;-73
2023/12/25 03:59:21;;;;;;;7.35;2.22;;;10.10;99.90;;;;;;5097855;28;20442;-72
2023/12/25 04:01:48;;;;;;;12.23;2.83;;;10.10;99.90;;;;;;5096868;28;20381;-72
2023/12/25 04:04:14;;;;;;;9.40;2.60;;;10.10;99.90;;;;;;5091031;28;20047;-72
2023/12/25 04:06:40;;;;;;;11.95;2.20;;;10.10;99.90;;;;;;5078674;28;20075;-72
2023/12/25 04:09:09;;;;;;;18.33;3.10;;;10.10;99.90;;;;;;5084097;28;20048;-73
2023/12/25 04:11:36;;;;;;;10.48;3.03;;;10.20;99.90;;;;;;5097685;28;20043;-73
2023/12/25 04:14:02;;;;;;;10.90;2.38;;;10.20;99.90;;;;;;5097260;28;20054;-73
2023/12/25 04:16:29;;;;;;;6.28;2.15;;;10.20;99.90;;;;;;5097077;28;20058;-73
2023/12/25 04:18:56;;;;;;;12.95;2.45;;;10.20;99.90;;;;;;5097206;28;20052;-73
2023/12/25 04:21:25;;;;;;;7.80;2.70;;;10.30;99.90;;;;;;5097382;28;20048;-73
2023/12/25 04:23:52;;;;;;;11.88;2.40;;;10.30;99.90;;;;;;5096596;28;20609;-73
2023/12/25 04:26:21;;;;;;;13.13;2.58;;;10.20;99.90;;;;;;5097169;28;20109;-73
2023/12/25 04:28:49;;;;;;;19.85;3.08;;;10.20;99.90;;;;;;5097313;28;20047;-72
2023/12/25 04:31:16;;;;;;;12.27;2.80;;;10.20;99.90;;;;;;5073545;28;20147;-73
2023/12/25 04:33:44;;;;;;;8.85;2.53;;;10.30;99.90;;;;;;5078176;28;20122;-72
2023/12/25 04:36:11;;;;;;;10.95;2.70;;;10.30;99.90;;;;;;5075976;28;20117;-73
2023/12/25 04:38:39;;;;;;;19.02;3.17;;;10.20;99.90;;;;;;5078299;28;20056;-74
2023/12/25 04:41:06;;;;;;;14.75;3.35;;;10.20;99.90;;;;;;5077776;28;20052;-73
2023/12/25 04:43:34;;;;;;;11.52;3.60;;;10.20;99.90;;;;;;5075477;28;20044;-73
2023/12/25 04:46:03;;;;;;;13.57;2.85;;;10.20;99.90;;;;;;5077320;28;20109;-73
2023/12/25 04:48:30;;;;;;;10.55;2.88;;;10.20;99.90;;;;;;5077600;28;20055;-73
2023/12/25 04:50:57;;;;;;;7.40;3.00;;;10.30;99.90;;;;;;5073850;28;20083;-74
2023/12/25 04:53:24;;;;;;;9.52;2.65;;;10.10;99.90;;;;;;5077524;28;20114;-73
2023/12/25 04:55:51;;;;;;;10.43;3.10;;;10.10;99.90;;;;;;5076279;28;20131;-73
2023/12/25 04:58:18;;;;;;;11.18;2.35;;;10.10;99.90;;;;;;5077317;28;20101;-73
2023/12/25 05:00:46;;;;;;;6.68;2.63;;;10.10;99.90;;;;;;5077666;28;20040;-73
2023/12/25 05:03:13;;;;;;;13.00;2.95;;;10.10;99.90;;;;;;5077501;28;20073;-73
2023/12/25 05:05:40;;;;;;;7.82;2.78;;;10.10;99.90;;;;;;5077028;28;20495;-73
2023/12/25 05:08:07;;;;;;;14.27;2.67;;;10.00;99.90;;;;;;5076334;28;20056;-72
2023/12/25 05:10:34;;;;;;;9.93;2.58;;;10.00;99.90;;;;;;5077476;28;20044;-74
2023/12/25 05:13:01;;;;;;;17.92;2.80;;;10.00;99.90;;;;;;5076769;28;20515;-74
2023/12/25 05:15:28;;;;;;;12.10;2.88;;;10.00;99.90;;;;;;5077487;28;20127;-74
2023/12/25 05:17:56;;;;;;;12.25;2.90;;;10.00;99.90;;;;;;5077314;28;20105;-74
2023/12/25 05:20:23;;;;;;;16.10;2.67;;;9.90;99.90;;;;;;5076724;28;20097;-74
2023/12/25 05:22:50;;;;;;;11.02;3.20;;;9.90;99.90;;;;;;5082919;28;20040;-75
2023/12/25 05:25:17;;;;;;;15.80;3.15;;;9.90;99.90;;;;;;5095574;28;20441;-73
2023/12/25 05:27:44;;;;;;;10.10;2.92;;;9.80;99.90;;;;;;5096224;28;20044;-75
2023/12/25 05:30:12;;;;;;;18.65;3.95;;;9.80;99.90;;;;;;5096230;28;20537;-74
2023/12/25 05:32:39;;;;;;;7.78;2.22;;;9.80;99.90;;;;;;5086255;28;20040;-74
2023/12/25 05:35:08;;;;;;;13.15;2.72;;;9.70;99.90;;;;;;5077195;28;20048;-73
2023/12/25 05:37:35;;;;;;;13.35;3.38;;;9.70;99.90;;;;;;5074732;28;20102;-73
2023/12/25 05:40:04;;;;;;;9.63;2.70;;;9.70;99.90;;;;;;5076391;28;20047;-74
2023/12/25 05:42:31;;;;;;;13.68;2.92;;;9.60;99.90;;;;;;5073135;28;20083;-75
2023/12/25 05:44:58;;;;;;;16.13;2.88;;;9.60;99.90;;;;;;5076787;28;20097;-74
2023/12/25 05:47:25;;;;;;;11.65;2.75;;;9.60;99.90;;;;;;5083146;28;20454;-73
2023/12/25 05:49:53;;;;;;;7.70;2.67;;;9.60;99.90;;;;;;5074793;28;20108;-73
2023/12/25 05:52:21;;;;;;;11.30;2.88;;;9.50;99.90;;;;;;5076588;28;20044;-73
2023/12/25 05:54:48;;;;;;;11.50;2.95;;;9.60;99.90;;;;;;5076248;28;20105;-73
2023/12/25 05:57:15;;;;;;;9.75;4.18;;;9.50;99.90;;;;;;5076659;28;20094;-74
2023/12/25 05:59:42;;;;;;;10.57;2.63;;;9.50;99.90;;;;;;5094415;28;20047;-73
2023/12/25 06:02:11;;;;;;;16.63;2.85;;;9.40;99.90;;;;;;5074878;28;20097;-73
2023/12/25 06:04:37;;;;;;;14.73;2.80;;;9.40;99.90;;;;;;5076257;28;20101;-73
2023/12/25 06:07:04;;;;;;;11.10;2.65;;;9.40;99.90;;;;;;5076121;28;20044;-73
2023/12/25 06:09:33;;;;;;;13.18;2.83;;;9.40;99.90;;;;;;5076077;28;20044;-73
2023/12/25 06:12:00;;;;;;;9.65;2.58;;;9.30;99.90;;;;;;5076335;28;20438;-73
2023/12/25 06:14:26;;;;;;;8.98;2.65;;;9.30;99.90;;;;;;5082646;28;20479;-73
2023/12/25 06:16:53;;;;;;;11.82;2.97;;;9.30;99.90;;;;;;5076331;28;20076;-75
2023/12/25 06:19:20;;;;;;;14.80;3.20;;;9.30;99.90;;;;;;5075275;28;20049;-75
2023/12/25 06:21:47;;;;;;;13.18;2.45;;;9.30;99.90;;;;;;5073380;28;20098;-73
2023/12/25 06:24:14;;;;;;;12.30;3.50;;;9.30;99.90;;;;;;5075808;28;20048;-73
2023/12/25 06:26:42;;;;;;;12.93;3.25;;;9.20;99.90;;;;;;5076048;28;20097;-74
2023/12/25 06:29:09;;;;;;;10.00;2.90;;;9.20;99.90;;;;;;5075338;28;20044;-73
2023/12/25 06:31:36;;;;;;;13.07;3.35;;;9.20;99.90;;;;;;5075998;28;20537;-73
2023/12/25 06:34:03;;;;;;;15.82;3.55;;;9.20;99.90;;;;;;5075950;28;20097;-73
2023/12/25 06:36:30;;;;;;;7.97;2.55;;;9.20;99.90;;;;;;5075118;28;20048;-74
2023/12/25 06:38:56;;;;;;;13.32;3.42;;;9.20;99.90;;;;;;5075908;28;20048;-73
2023/12/25 06:41:23;;;;;;;14.70;3.13;;;9.20;99.90;;;;;;5075747;28;20062;-73
2023/12/25 06:43:51;;;;;;;13.77;3.08;;;9.20;99.90;;;;;;5075307;28;20048;-72
2023/12/25 06:46:18;;;;;;;15.52;3.50;;;9.20;99.90;;;;;;5073766;28;20047;-73
2023/12/25 06:48:45;;;;;;;12.98;3.28;;;9.20;99.90;;;;;;5093390;28;20057;-74
2023/12/25 06:51:12;;;;;;;11.60;3.35;;;9.20;99.90;;;;;;5075267;28;20798;-74
2023/12/25 06:53:41;;;;;;;12.93;3.28;;;9.30;99.90;;;;;;5087713;28;20579;-73
2023/12/25 06:56:10;;;;;;;17.48;4.95;;;9.30;99.90;;;;;;5094071;28;20054;-74
2023/12/25 06:58:37;;;;;;;13.55;2.95;;;9.50;99.90;;;;;;5079473;28;20075;-73
2023/12/25 07:01:06;;;;;;;12.50;3.35;;;9.30;99.90;;;;;;5072890;28;20039;-72
2023/12/25 07:03:33;;;;;;;18.42;3.25;;;9.40;99.90;;;;;;5075118;28;20071;-73
2023/12/25 07:06:00;;;;;;;8.68;2.85;;;9.40;99.90;;;;;;5074147;28;20048;-74
2023/12/25 07:08:27;;;;;;;10.45;3.10;;;9.40;99.90;;;;;;5071894;28;20559;-72
2023/12/25 07:10:54;;;;;;;18.83;3.22;;;9.40;99.90;;;;;;5064186;28;20109;-73
2023/12/25 07:13:21;;;;;;;14.15;3.47;;;9.40;99.90;;;;;;5068717;28;20044;-73
2023/12/25 07:15:48;;;;;;;12.85;3.55;;;9.40;99.90;;;;;;5082483;28;20064;-70
2023/12/25 07:18:17;;;;;;;12.18;2.83;;;9.40;99.90;;;;;;5070663;28;20044;-73
2023/12/25 07:20:44;;;;;;;13.40;3.13;;;9.40;99.90;;;;;;5070040;28;20044;-72
2023/12/25 07:23:13;;;;;;;14.27;3.00;;;9.40;99.90;;;;;;5072622;28;20078;-73
2023/12/25 07:25:40;;;;;;;8.95;2.97;;;9.40;99.90;;;;;;5084946;28;20057;-72
2023/12/25 07:28:07;;;;;;;14.68;2.95;;;9.40;99.90;;;;;;5091307;28;20496;-72
2023/12/25 07:30:35;;;;;;;10.55;2.92;;;9.40;99.90;;;;;;5093752;28;20043;-72
2023/12/25 07:33:02;;;;;;;16.85;3.22;;;9.40;99.90;;;;;;5093234;28;20075;-72
2023/12/25 07:35:31;;;;;;;10.77;2.85;;;9.40;99.90;;;;;;5091448;28;20373;-72
2023/12/25 07:37:57;;;;;;;11.95;2.95;;;9.40;99.90;;;;;;5093235;28;20469;-72
2023/12/25 07:40:26;;;;;;;7.82;2.70;;;9.40;99.90;;;;;;5092810;28;20101;-72
2023/12/25 07:42:52;;;;;;;11.60;3.80;;;9.40;99.90;;;;;;5071815;28;20093;-72
2023/12/25 07:45:20;;;;;;;14.60;3.03;;;9.40;99.90;;;;;;5084977;28;20073;-71
2023/12/25 07:47:47;;;;;;;16.30;2.70;;;9.40;99.90;;;;;;5092233;28;20043;-73
2023/12/25 07:50:14;;;;;;;10.95;2.35;;;9.40;99.90;;;;;;5093405;28;20055;-72
2023/12/25 07:52:43;;;;;;;14.73;3.17;;;9.30;99.90;;;;;;5091582;28;20164;-72
2023/12/25 07:55:09;;;;;;;15.45;3.53;;;9.30;99.90;;;;;;5092176;28;20044;-72
2023/12/25 07:57:36;;;;;;;8.15;2.20;;;9.30;99.90;;;;;;5093438;28;20048;-72
2023/12/25 08:00:04;;;;;;;15.30;2.97;;;9.40;99.90;;;;;;5110207;28;20059;-72
2023/12/25 08:02:30;;;;;;;13.65;2.90;;;9.40;99.90;;;;;;5093360;28;20039;-72
2023/12/25 08:04:57;;;;;;;12.60;3.15;;;9.30;99.90;;;;;;5093005;28;20111;-72
2023/12/25 08:07:24;;;;;;;11.75;3.25;;;9.30;99.90;;;;;;5093002;28;20055;-73
2023/12/25 08:09:52;;;;;;;14.30;3.35;;;9.30;99.90;;;;;;5092699;28;20384;-72
2023/12/25 08:12:19;;;;;;;12.52;3.50;;;9.20;99.90;;;;;;5093671;28;20077;-73
2023/12/25 08:14:47;;;;;;;10.88;2.60;;;9.10;99.90;;;;;;5092346;28;20051;-72
2023/12/25 08:17:14;;;;;;;12.90;3.75;;;9.10;99.90;;;;;;5087574;28;20048;-71
2023/12/25 08:19:41;;;;;;;11.10;3.70;;;9.00;99.90;;;;;;5073657;28;20048;-72
2023/12/25 08:22:08;;;;;;;13.13;3.60;;;9.00;99.90;;;;;;5073545;28;20040;-72
2023/12/25 08:24:35;;;;;;;9.23;2.85;;;8.90;99.90;;;;;;5073780;28;20457;-72
2023/12/25 08:27:04;;;;;;;13.57;3.17;;;8.90;99.90;;;;;;5076686;28;20480;-73
2023/12/25 08:29:31;;;;;;;14.23;3.85;;;8.90;99.90;;;;;;5075465;28;20056;-72
2023/12/25 08:31:58;;;;;;;7.45;2.10;;;8.90;99.90;;;;;;5077742;28;20048;-72
2023/12/25 08:34:25;;;;;;;10.50;3.10;;;8.90;99.90;;;;;;5077810;28;20403;-72
2023/12/25 08:36:52;;;;;;;11.90;2.53;;;8.90;99.90;;;;;;5076802;28;20097;-74
2023/12/25 08:39:19;;;;;;;6.25;2.05;;;8.90;99.90;;;;;;5094788;28;20055;-72
2023/12/25 08:41:46;;;;;;;8.50;2.28;;;8.90;99.90;;;;;;5082576;28;20151;-73
2023/12/25 08:44:14;;;;;;;6.60;1.83;;;8.90;99.90;;;;;;5076554;28;20097;-73
2023/12/25 08:46:42;;;;;;;4.82;1.65;;;8.90;99.90;;;;;;5077536;28;20091;-72
2023/12/25 08:49:09;;;;;;;7.75;1.88;;;9.00;99.90;;;;;;5073021;28;20078;-72
2023/12/25 08:51:38;;;;;;;7.18;2.08;;;9.40;99.90;;;;;;5071111;28;20083;-74
2023/12/25 08:54:06;;;;;;;9.02;1.80;;;9.50;99.90;;;;;;5073301;28;20048;-73
2023/12/25 08:56:34;;;;;;;8.98;1.73;;;9.60;99.90;;;;;;5069301;28;20057;-73
2023/12/25 08:59:01;;;;;;;7.57;1.95;;;9.50;99.90;;;;;;5080014;28;20121;-74
2023/12/25 09:01:30;;;;;;;6.88;2.67;;;9.60;99.90;;;;;;5075770;28;20074;-73
2023/12/25 09:03:57;;;;;;;8.88;1.95;;;9.70;99.90;;;;;;5075527;28;20105;-72
2023/12/25 09:06:24;;;;;;;8.75;2.00;;;10.00;99.90;;;;;;5075914;28;20056;-73
2023/12/25 09:08:52;;;;;;;6.18;1.63;;;10.30;99.90;;;;;;5072530;28;20556;-74
2023/12/25 09:11:21;;;;;;;6.65;2.40;;;10.60;99.90;;;;;;5077517;28;20535;-73
2023/12/25 09:13:48;;;;;;;8.75;2.10;;;10.90;99.90;;;;;;5076156;28;20043;-73
2023/12/25 09:16:15;;;;;;;7.30;1.85;;;10.80;99.90;;;;;;5076849;28;20488;-73
2023/12/25 09:18:43;;;;;;;9.43;2.00;;;10.60;99.90;;;;;;5093605;28;20458;-73
2023/12/25 09:21:10;;;;;;;8.05;1.75;;;10.40;99.90;;;;;;5076018;28;20052;-73
2023/12/25 09:23:36;;;;;;;7.03;2.35;;;10.30;99.90;;;;;;5074767;28;20044;-73
2023/12/25 09:26:03;;;;;;;7.82;2.70;;;10.40;99.90;;;;;;5073899;28;20079;-73
2023/12/25 09:28:30;;;;;;;7.60;1.85;;;10.20;99.90;;;;;;5075223;28;20052;-72
2023/12/25 09:30:57;;;;;;;7.50;2.13;;;10.40;99.90;;;;;;5076123;28;20377;-73
2023/12/25 09:33:25;;;;;;;8.73;1.90;;;10.30;99.90;;;;;;5075100;28;20040;-74
2023/12/25 09:35:53;;;;;;;5.72;1.73;;;10.40;99.90;;;;;;5075721;28;20502;-73
2023/12/25 09:38:20;;;;;;;14.40;2.20;;;10.60;99.90;;;;;;5074630;28;20189;-73
2023/12/25 09:40:47;;;;;;;7.75;1.95;;;10.80;99.90;;;;;;5074405;28;20073;-73
2023/12/25 09:43:15;;;;;;;6.97;2.47;;;10.60;99.90;;;;;;5074198;28;20484;-85
2023/12/25 09:45:42;;;;;;;9.18;1.85;;;10.90;99.90;;;;;;5081249;28;20492;-73
2023/12/25 09:48:09;;;;;;;8.57;2.03;;;10.90;99.90;;;;;;5075191;28;20055;-74
2023/12/25 09:50:39;;;;;;;7.20;1.60;;;10.80;99.90;;;;;;5074128;28;20048;-73
2023/12/25 09:53:07;;;;;;;5.72;1.63;;;10.70;99.90;;;;;;5075031;28;20040;-74
2023/12/25 09:55:34;;;;;;;9.70;2.10;;;10.60;99.90;;;;;;5075180;28;20294;-73
2023/12/25 09:58:05;;;;;;;6.25;1.58;;;10.80;99.90;;;;;;5074308;28;20105;-74
2023/12/25 10:00:32;;;;;;;12.18;2.25;;;10.80;99.90;;;;;;5083520;28;20352;-74
2023/12/25 10:03:01;;;;;;;7.82;2.13;;;10.80;99.90;;;;;;5078915;28;20495;-75
2023/12/25 10:05:27;;;;;;;6.78;1.70;;;10.60;99.90;;;;;;5087909;28;20043;-74
2023/12/25 10:07:55;;;;;;;8.95;2.13;;;10.50;99.90;;;;;;5074181;28;20131;-74
2023/12/25 10:10:28;;;;;;;7.30;1.45;;;10.40;99.90;;;;;;5073816;28;20093;-73
2023/12/25 10:12:57;;;;;;;7.90;1.88;;;10.20;99.90;;;;;;5075536;28;20040;-73
2023/12/25 10:15:25;;;;;;;6.72;1.70;;;10.10;99.90;;;;;;5074202;28;20051;-74
2023/12/25 10:18:02;;;;;;;6.50;1.88;;;10.00;99.90;;;;;;5073963;28;20496;-73
2023/12/25 10:20:29;;;;;;;6.32;1.45;;;9.90;99.90;;;;;;5072349;28;20195;-73
2023/12/25 10:22:55;;;;;;;8.52;2.10;;;9.90;99.90;;;;;;5074495;28;20048;-72
2023/12/25 10:25:28;;;;;;;7.72;2.13;;;9.90;99.90;;;;;;5075102;28;20052;-73
2023/12/25 10:27:55;;;;;;;6.72;1.98;;;10.00;99.90;;;;;;5073352;28;20499;-73
2023/12/25 10:30:24;;;;;;;8.48;2.15;;;9.90;99.90;;;;;;5074190;28;20445;-73
2023/12/25 10:33:10;;;;;;;8.52;2.45;;;9.90;99.90;;;;;;5074401;28;20040;-73
2023/12/25 10:35:36;;;;;;;7.30;1.95;;;9.90;99.90;;;;;;5071777;28;20145;-71
2023/12/25 10:38:06;;;;;;;11.20;1.98;;;9.90;99.90;;;;;;5073575;28;20492;-73
2023/12/25 10:40:36;;;;;;;13.25;1.98;;;9.90;99.90;;;;;;5073148;28;20079;-73
2023/12/25 10:43:03;;;;;;;8.13;2.20;;;10.00;99.90;;;;;;5071370;28;20040;-73
2023/12/25 10:45:31;;;;;;;11.25;2.35;;;10.00;99.90;;;;;;5070777;28;20441;-73
2023/12/25 10:48:02;;;;;;;13.20;2.78;;;10.20;99.90;;;;;;5064404;28;20060;-72
2023/12/25 10:50:34;;;;;;;18.65;2.88;;;10.50;99.90;;;;;;5064392;28;20047;-72
2023/12/25 10:53:03;;;;;;;7.60;2.05;;;10.80;99.90;;;;;;5098531;28;20499;-73
2023/12/25 10:55:37;;;;;;;13.93;2.65;;;11.00;99.90;;;;;;5071706;28;20048;-72
2023/12/25 10:58:06;;;;;;;9.20;2.17;;;11.40;99.90;;;;;;5070601;28;20064;-73
2023/12/25 11:00:34;;;;;;;10.38;2.55;;;11.60;99.90;;;;;;5070746;28;20048;-73
2023/12/25 11:03:04;;;;;;;7.70;1.92;;;11.90;99.90;;;;;;5072442;28;20160;-73
2023/12/25 11:05:31;;;;;;;7.95;2.30;;;12.10;99.90;;;;;;5073914;28;20052;-73
2023/12/25 11:07:59;;;;;;;6.47;2.55;;;11.90;99.90;;;;;;5092057;28;20071;-73
2023/12/25 11:10:27;;;;;;;11.55;3.03;;;11.60;99.90;;;;;;5083672;28;20496;-74
2023/12/25 11:12:56;;;;;;;8.85;2.80;;;11.50;99.90;;;;;;5073415;28;20044;-73
2023/12/25 11:15:23;;;;;;;9.38;2.45;;;11.20;99.90;;;;;;5076444;28;20491;-72
2023/12/25 11:17:51;;;;;;;10.30;2.70;;;11.20;99.90;;;;;;5073788;28;20381;-73
2023/12/25 11:20:18;;;;;;;11.88;2.63;;;11.20;99.90;;;;;;5071559;28;20086;-73
2023/12/25 11:22:48;;;;;;;12.63;3.20;;;11.00;99.90;;;;;;5090389;28;20056;-73
2023/12/25 11:25:16;;;;;;;12.10;2.85;;;10.90;99.90;;;;;;5085526;28;20048;-73
2023/12/25 11:27:43;;;;;;;10.88;3.47;;;10.70;99.90;;;;;;5074416;28;20078;-72
2023/12/25 11:30:13;;;;;;;10.45;3.28;;;10.70;99.90;;;;;;5073824;28;20056;-73
2023/12/25 11:32:45;;;;;;;8.47;3.47;;;10.50;99.90;;;;;;5071686;28;20129;-73
2023/12/25 11:35:13;;;;;;;12.07;2.92;;;10.50;99.90;;;;;;5073862;28;20301;-73
2023/12/25 11:37:40;;;;;;;14.20;2.55;;;10.50;99.90;;;;;;5073721;28;20139;-72
2023/12/25 11:40:08;;;;;;;10.32;2.15;;;10.50;99.90;;;;;;5071753;28;20052;-72
2023/12/25 11:42:36;;;;;;;11.90;2.70;;;10.50;99.90;;;;;;5071619;28;20048;-72
2023/12/25 11:45:05;;;;;;;10.00;2.65;;;10.40;99.90;;;;;;5073782;28;20508;-72
2023/12/25 11:47:40;;;;;;;10.13;2.88;;;10.50;99.90;;;;;;5071545;28;20060;-73
2023/12/25 11:50:08;;;;;;;14.65;3.55;;;10.40;99.90;;;;;;5072041;28;20052;-72
2023/12/25 11:52:53;;;;;;;10.30;3.13;;;10.40;99.90;;;;;;5071343;28;20048;-70
2023/12/25 11:55:20;;;;;;;13.70;4.10;;;10.50;99.90;;;;;;5073099;28;20125;-71
2023/12/25 11:57:47;;;;;;;16.90;3.40;;;10.40;99.90;;;;;;5074840;28;20055;-71
2023/12/25 12:00:25;;;;;;;15.23;3.13;;;10.30;99.90;;;;;;5091861;28;20048;-72
2023/12/25 12:02:54;;;;;;;13.05;3.13;;;10.30;99.90;;;;;;5077930;28;20054;-72
2023/12/25 12:05:21;;;;;;;8.45;2.67;;;10.20;99.90;;;;;;5077818;28;20488;-73
2023/12/25 12:07:48;;;;;;;14.25;3.00;;;10.00;99.90;;;;;;5077211;28;20101;-72
2023/12/25 12:10:16;;;;;;;14.38;3.58;;;10.00;99.90;;;;;;5077614;28;20048;-73
2023/12/25 12:12:43;;;;;;;8.55;2.97;;;10.00;99.90;;;;;;5073817;28;20355;-72
2023/12/25 12:15:11;;;;;;;12.02;3.25;;;10.00;99.90;;;;;;5080437;28;20437;-72
2023/12/25 12:17:38;;;;;;;12.50;3.10;;;9.90;99.90;;;;;;5077716;28;20056;-72
2023/12/25 12:20:08;;;;;;;13.50;3.78;;;10.00;99.90;;;;;;5077547;28;20044;-73
2023/12/25 12:22:35;;;;;;;14.05;3.08;;;10.00;99.90;;;;;;5075724;28;20055;-73
2023/12/25 12:25:15;;;;;;;13.27;3.95;;;9.90;99.90;;;;;;5075677;28;20139;-72
2023/12/25 12:27:42;;;;;;;13.30;3.88;;;9.80;99.90;;;;;;5076346;28;20938;-72
2023/12/25 12:30:09;;;;;;;11.27;3.50;;;9.80;99.90;;;;;;5076111;28;20086;-72
2023/12/25 12:32:37;;;;;;;13.07;3.22;;;9.70;99.90;;;;;;5075543;28;20062;-72
2023/12/25 12:35:05;;;;;;;12.57;3.35;;;9.70;99.90;;;;;;5074581;28;20086;-72
2023/12/25 12:37:34;;;;;;;18.80;4.15;;;9.70;99.90;;;;;;5072289;28;20079;-72
2023/12/25 12:40:02;;;;;;;9.95;3.55;;;9.70;99.90;;;;;;5073463;28;20076;-72
2023/12/25 12:42:29;;;;;;;23.05;4.30;;;9.80;99.90;;;;;;5073975;28;20404;-72
2023/12/25 12:44:58;;;;;;;15.18;3.85;;;9.70;99.90;;;;;;5073915;28;20089;-72